EZY18YZ EGPD-EGKK
Flight info
| Callsign | EZY18YZ |
|---|---|
| Flight time | 1h 16m |
| Altitude | 24000 |
| Route | NAXIL P600 PTH/N0431F380 DCT ZOFAT/N0437F390 DCT ADZOP DCT EGTOC DCT KEPAD L151 DISIT |
| Aircraft | A320/M-SDE3FGHIRWY/LB1 |
Departure
| Time | 2026-04-29 19:36 |
|---|---|
| Airport | Aberdeen International Airport (EGPD) |
Arrival
| Time | 2026-04-29 20:52 |
|---|---|
| Airport | London Gatwick Airport (EGKK) |
| Time | Latitude | Longitude | Altitude | Speed | Heading |
|---|---|---|---|---|---|
| 2026-04-29 19:12 | 57.20135 | -2.20312 | 247 ft | 0 kts | 248° |
| 2026-04-29 19:28 | 57.20137 | -2.20303 | 247 ft | 2 kts | 249° |
| 2026-04-29 19:28 | 57.20144 | -2.20269 | 247 ft | 3 kts | 255° |
| 2026-04-29 19:28 | 57.20148 | -2.20233 | 247 ft | 3 kts | 267° |
| 2026-04-29 19:29 | 57.20147 | -2.20198 | 247 ft | 3 kts | 296° |
| 2026-04-29 19:29 | 57.20139 | -2.20178 | 247 ft | 1 kts | 336° |
| 2026-04-29 19:29 | 57.20137 | -2.20176 | 247 ft | 0 kts | 338° |
| 2026-04-29 19:31 | 57.20150 | -2.20185 | 247 ft | 4 kts | 339° |
| 2026-04-29 19:31 | 57.20194 | -2.20218 | 247 ft | 9 kts | 338° |
| 2026-04-29 19:31 | 57.20258 | -2.20266 | 247 ft | 10 kts | 338° |
| 2026-04-29 19:32 | 57.20318 | -2.20311 | 247 ft | 9 kts | 338° |
| 2026-04-29 19:32 | 57.20375 | -2.20353 | 247 ft | 8 kts | 338° |
| 2026-04-29 19:32 | 57.20428 | -2.20391 | 247 ft | 8 kts | 341° |
| 2026-04-29 19:32 | 57.20476 | -2.20363 | 247 ft | 7 kts | 38° |
| 2026-04-29 19:33 | 57.20531 | -2.20356 | 247 ft | 11 kts | 340° |
| 2026-04-29 19:33 | 57.20623 | -2.20424 | 247 ft | 17 kts | 338° |
| 2026-04-29 19:33 | 57.20755 | -2.20524 | 247 ft | 24 kts | 339° |
| 2026-04-29 19:33 | 57.20902 | -2.20630 | 247 ft | 11 kts | 338° |
| 2026-04-29 19:34 | 57.20943 | -2.20661 | 247 ft | 8 kts | 339° |
| 2026-04-29 19:34 | 57.20996 | -2.20651 | 247 ft | 8 kts | 47° |
| 2026-04-29 19:34 | 57.21016 | -2.20562 | 247 ft | 7 kts | 68° |
| 2026-04-29 19:34 | 57.21033 | -2.20485 | 248 ft | 5 kts | 68° |
| 2026-04-29 19:35 | 57.21040 | -2.20418 | 248 ft | 7 kts | 110° |
| 2026-04-29 19:35 | 57.20945 | -2.20331 | 247 ft | 38 kts | 158° |
| 2026-04-29 19:35 | 57.20454 | -2.19968 | 250 ft | 110 kts | 158° |
| 2026-04-29 19:35 | 57.19606 | -2.19338 | 579 ft | 138 kts | 159° |
| 2026-04-29 19:36 | 57.18714 | -2.18698 | 1343 ft | 140 kts | 161° |
| 2026-04-29 19:36 | 57.17795 | -2.18068 | 2075 ft | 144 kts | 160° |
| 2026-04-29 19:36 | 57.16758 | -2.17690 | 2463 ft | 165 kts | 187° |
| 2026-04-29 19:36 | 57.15702 | -2.18674 | 2994 ft | 179 kts | 222° |
| 2026-04-29 19:37 | 57.15137 | -2.20759 | 3657 ft | 192 kts | 256° |
| 2026-04-29 19:37 | 57.15014 | -2.22438 | 4005 ft | 202 kts | 258° |
| 2026-04-29 19:37 | 57.14763 | -2.26125 | 4535 ft | 235 kts | 260° |
| 2026-04-29 19:37 | 57.14553 | -2.29275 | 5026 ft | 260 kts | 259° |
| 2026-04-29 19:38 | 57.14331 | -2.32672 | 5771 ft | 272 kts | 261° |
| 2026-04-29 19:38 | 57.14098 | -2.36161 | 6688 ft | 277 kts | 259° |
| 2026-04-29 19:38 | 57.13561 | -2.39578 | 7550 ft | 280 kts | 243° |
| 2026-04-29 19:38 | 57.12501 | -2.42588 | 8436 ft | 281 kts | 225° |
| 2026-04-29 19:39 | 57.11067 | -2.45056 | 9344 ft | 284 kts | 218° |
| 2026-04-29 19:39 | 57.09583 | -2.47482 | 10300 ft | 287 kts | 218° |
| 2026-04-29 19:39 | 57.08080 | -2.49944 | 10899 ft | 303 kts | 218° |
| 2026-04-29 19:39 | 57.06424 | -2.52654 | 11285 ft | 324 kts | 218° |
| 2026-04-29 19:40 | 57.04744 | -2.55418 | 11971 ft | 332 kts | 218° |
| 2026-04-29 19:40 | 57.03014 | -2.58276 | 12748 ft | 337 kts | 218° |
| 2026-04-29 19:40 | 57.01258 | -2.61179 | 13519 ft | 342 kts | 218° |
| 2026-04-29 19:40 | 56.99470 | -2.64124 | 14288 ft | 347 kts | 217° |
| 2026-04-29 19:41 | 56.97660 | -2.67098 | 14962 ft | 352 kts | 217° |
| 2026-04-29 19:41 | 56.95819 | -2.70114 | 15644 ft | 356 kts | 217° |
| 2026-04-29 19:41 | 56.93961 | -2.73143 | 16350 ft | 359 kts | 217° |
| 2026-04-29 19:41 | 56.92080 | -2.76204 | 17050 ft | 363 kts | 217° |
| 2026-04-29 19:42 | 56.90174 | -2.79273 | 17751 ft | 366 kts | 215° |
| 2026-04-29 19:42 | 56.88818 | -2.81100 | 18205 ft | 366 kts | 211° |
| 2026-04-29 19:42 | 56.86027 | -2.84644 | 19064 ft | 371 kts | 211° |
| 2026-04-29 19:42 | 56.83897 | -2.87347 | 19687 ft | 373 kts | 211° |
| 2026-04-29 19:43 | 56.81760 | -2.90051 | 20327 ft | 375 kts | 211° |
| 2026-04-29 19:43 | 56.79600 | -2.92770 | 20978 ft | 377 kts | 210° |
| 2026-04-29 19:43 | 56.77434 | -2.95489 | 21614 ft | 379 kts | 210° |
| 2026-04-29 19:43 | 56.75261 | -2.98224 | 22235 ft | 380 kts | 210° |
| 2026-04-29 19:44 | 56.73073 | -3.00976 | 22848 ft | 382 kts | 210° |
| 2026-04-29 19:44 | 56.70877 | -3.03728 | 23415 ft | 385 kts | 210° |
| 2026-04-29 19:44 | 56.68692 | -3.06460 | 23989 ft | 387 kts | 210° |
| 2026-04-29 19:44 | 56.66459 | -3.09253 | 24470 ft | 389 kts | 210° |
| 2026-04-29 19:45 | 56.64224 | -3.12053 | 24933 ft | 391 kts | 211° |
| 2026-04-29 19:45 | 56.61976 | -3.14868 | 25394 ft | 393 kts | 211° |
| 2026-04-29 19:45 | 56.59715 | -3.17690 | 25843 ft | 396 kts | 211° |
| 2026-04-29 19:45 | 56.57434 | -3.20527 | 26288 ft | 398 kts | 211° |
| 2026-04-29 19:46 | 56.55175 | -3.23329 | 26721 ft | 400 kts | 211° |
| 2026-04-29 19:46 | 56.52865 | -3.26189 | 27161 ft | 402 kts | 211° |
| 2026-04-29 19:46 | 56.50548 | -3.29057 | 27582 ft | 404 kts | 211° |
| 2026-04-29 19:46 | 56.48215 | -3.31935 | 27999 ft | 407 kts | 211° |
| 2026-04-29 19:47 | 56.45865 | -3.34835 | 28415 ft | 409 kts | 211° |
| 2026-04-29 19:47 | 56.43430 | -3.37487 | 28818 ft | 408 kts | 203° |
| 2026-04-29 19:47 | 56.40871 | -3.39598 | 29213 ft | 410 kts | 201° |
| 2026-04-29 19:47 | 56.38261 | -3.41695 | 29609 ft | 412 kts | 201° |
| 2026-04-29 19:48 | 56.35631 | -3.43789 | 30001 ft | 414 kts | 201° |
| 2026-04-29 19:48 | 56.33875 | -3.45184 | 30272 ft | 416 kts | 201° |
| 2026-04-29 19:48 | 56.30547 | -3.47831 | 30691 ft | 419 kts | 201° |
| 2026-04-29 19:48 | 56.27864 | -3.49963 | 30998 ft | 422 kts | 201° |
| 2026-04-29 19:49 | 56.25171 | -3.52107 | 31306 ft | 424 kts | 201° |
| 2026-04-29 19:49 | 56.22496 | -3.54242 | 31594 ft | 426 kts | 201° |
| 2026-04-29 19:49 | 56.19778 | -3.56414 | 31888 ft | 428 kts | 201° |
| 2026-04-29 19:49 | 56.17050 | -3.58582 | 32211 ft | 429 kts | 201° |
| 2026-04-29 19:50 | 56.14427 | -3.60659 | 32597 ft | 429 kts | 201° |
| 2026-04-29 19:50 | 56.11696 | -3.62817 | 33006 ft | 428 kts | 200° |
| 2026-04-29 19:50 | 56.08975 | -3.64961 | 33399 ft | 427 kts | 200° |
| 2026-04-29 19:50 | 56.06252 | -3.67102 | 33792 ft | 427 kts | 200° |
| 2026-04-29 19:51 | 56.03535 | -3.69238 | 34188 ft | 426 kts | 200° |
| 2026-04-29 19:51 | 56.00820 | -3.71370 | 34556 ft | 426 kts | 200° |
| 2026-04-29 19:51 | 55.98104 | -3.73499 | 34874 ft | 426 kts | 200° |
| 2026-04-29 19:51 | 55.95390 | -3.75630 | 35168 ft | 426 kts | 200° |
| 2026-04-29 19:52 | 55.92670 | -3.77762 | 35456 ft | 426 kts | 200° |
| 2026-04-29 19:52 | 55.89950 | -3.79892 | 35739 ft | 427 kts | 200° |
| 2026-04-29 19:52 | 55.87229 | -3.82014 | 36014 ft | 427 kts | 200° |
| 2026-04-29 19:52 | 55.84506 | -3.84129 | 36281 ft | 427 kts | 200° |
| 2026-04-29 19:53 | 55.81781 | -3.86242 | 36544 ft | 427 kts | 200° |
| 2026-04-29 19:53 | 55.79056 | -3.88359 | 36808 ft | 427 kts | 200° |
| 2026-04-29 19:53 | 55.76367 | -3.90447 | 37058 ft | 428 kts | 200° |
| 2026-04-29 19:53 | 55.73632 | -3.92561 | 37302 ft | 428 kts | 200° |
| 2026-04-29 19:54 | 55.68194 | -3.96746 | 37403 ft | 423 kts | 200° |
| 2026-04-29 19:54 | 55.62771 | -4.00736 | 37403 ft | 419 kts | 193° |
| 2026-04-29 19:55 | 55.57084 | -4.02086 | 37391 ft | 410 kts | 174° |
| 2026-04-29 19:55 | 55.51546 | -4.00297 | 37397 ft | 407 kts | 164° |
| 2026-04-29 19:56 | 55.46037 | -3.97982 | 37399 ft | 407 kts | 164° |
| 2026-04-29 19:56 | 55.40510 | -3.95707 | 37411 ft | 407 kts | 165° |
| 2026-04-29 19:57 | 55.35935 | -3.93824 | 37416 ft | 406 kts | 164° |
| 2026-04-29 19:57 | 55.29519 | -3.91178 | 37414 ft | 406 kts | 165° |
| 2026-04-29 19:58 | 55.24019 | -3.88924 | 37414 ft | 406 kts | 165° |
| 2026-04-29 19:58 | 55.18523 | -3.86668 | 37425 ft | 405 kts | 164° |
| 2026-04-29 19:59 | 55.13031 | -3.84417 | 37425 ft | 404 kts | 164° |
| 2026-04-29 19:59 | 55.07595 | -3.82207 | 37406 ft | 403 kts | 164° |
| 2026-04-29 20:00 | 55.02128 | -3.79988 | 37405 ft | 403 kts | 164° |
| 2026-04-29 20:00 | 54.96660 | -3.77769 | 37403 ft | 403 kts | 164° |
| 2026-04-29 20:01 | 54.91194 | -3.75556 | 37412 ft | 403 kts | 165° |
| 2026-04-29 20:01 | 54.85762 | -3.73371 | 37409 ft | 402 kts | 165° |
| 2026-04-29 20:02 | 54.80308 | -3.71181 | 37407 ft | 402 kts | 165° |
| 2026-04-29 20:02 | 54.75747 | -3.69344 | 37400 ft | 402 kts | 165° |
| 2026-04-29 20:03 | 54.69402 | -3.66801 | 37403 ft | 402 kts | 165° |
| 2026-04-29 20:03 | 54.63991 | -3.64645 | 37401 ft | 401 kts | 165° |
| 2026-04-29 20:04 | 54.58543 | -3.62472 | 37403 ft | 401 kts | 165° |
| 2026-04-29 20:04 | 54.53095 | -3.60318 | 37400 ft | 400 kts | 165° |
| 2026-04-29 20:05 | 54.47694 | -3.58192 | 37396 ft | 400 kts | 165° |
| 2026-04-29 20:05 | 54.42263 | -3.56051 | 37413 ft | 400 kts | 165° |
| 2026-04-29 20:06 | 54.36838 | -3.53920 | 37409 ft | 399 kts | 165° |
| 2026-04-29 20:06 | 54.31433 | -3.51799 | 37401 ft | 398 kts | 165° |
| 2026-04-29 20:07 | 54.26033 | -3.49674 | 37392 ft | 397 kts | 165° |
| 2026-04-29 20:07 | 54.20684 | -3.47584 | 37392 ft | 397 kts | 165° |
| 2026-04-29 20:08 | 54.16196 | -3.45840 | 37393 ft | 397 kts | 165° |
| 2026-04-29 20:08 | 54.09887 | -3.43397 | 37384 ft | 398 kts | 165° |
| 2026-04-29 20:09 | 54.04485 | -3.41306 | 37378 ft | 398 kts | 165° |
| 2026-04-29 20:09 | 53.99113 | -3.39223 | 37367 ft | 398 kts | 165° |
| 2026-04-29 20:10 | 53.93700 | -3.37139 | 37382 ft | 398 kts | 165° |
| 2026-04-29 20:10 | 53.88282 | -3.35056 | 37368 ft | 399 kts | 165° |
| 2026-04-29 20:11 | 53.82850 | -3.32978 | 37366 ft | 400 kts | 165° |
| 2026-04-29 20:11 | 53.77448 | -3.30919 | 37362 ft | 400 kts | 165° |
| 2026-04-29 20:12 | 53.72006 | -3.28841 | 37361 ft | 401 kts | 165° |
| 2026-04-29 20:12 | 53.66560 | -3.26772 | 37372 ft | 401 kts | 165° |
| 2026-04-29 20:13 | 53.62037 | -3.25063 | 37368 ft | 401 kts | 165° |
| 2026-04-29 20:13 | 53.55668 | -3.22648 | 37362 ft | 401 kts | 165° |
| 2026-04-29 20:14 | 53.50218 | -3.20590 | 37355 ft | 401 kts | 165° |
| 2026-04-29 20:14 | 53.44768 | -3.18547 | 37354 ft | 401 kts | 165° |
| 2026-04-29 20:15 | 53.39358 | -3.16533 | 37346 ft | 401 kts | 165° |
| 2026-04-29 20:15 | 53.33901 | -3.14535 | 37342 ft | 402 kts | 168° |
| 2026-04-29 20:16 | 53.28322 | -3.13626 | 37343 ft | 403 kts | 172° |
| 2026-04-29 20:16 | 53.23673 | -3.12958 | 37341 ft | 403 kts | 172° |
| 2026-04-29 20:17 | 53.18154 | -3.11593 | 37351 ft | 399 kts | 160° |
| 2026-04-29 20:17 | 53.15599 | -3.09817 | 37351 ft | 397 kts | 149° |
| 2026-04-29 20:17 | 53.13305 | -3.07269 | 37344 ft | 396 kts | 140° |
| 2026-04-29 20:18 | 53.09526 | -3.00627 | 37320 ft | 395 kts | 131° |
| 2026-04-29 20:18 | 53.05870 | -2.93806 | 37332 ft | 395 kts | 132° |
| 2026-04-29 20:19 | 53.02219 | -2.87055 | 37337 ft | 395 kts | 132° |
| 2026-04-29 20:19 | 52.98544 | -2.80249 | 37341 ft | 395 kts | 132° |
| 2026-04-29 20:20 | 52.94871 | -2.73450 | 37333 ft | 396 kts | 131° |
| 2026-04-29 20:20 | 52.91189 | -2.66659 | 37098 ft | 404 kts | 131° |
| 2026-04-29 20:21 | 52.89307 | -2.63194 | 36851 ft | 404 kts | 131° |
| 2026-04-29 20:21 | 52.87429 | -2.59738 | 36587 ft | 403 kts | 131° |
| 2026-04-29 20:21 | 52.85555 | -2.56299 | 36322 ft | 401 kts | 131° |
| 2026-04-29 20:21 | 52.83691 | -2.52880 | 36066 ft | 400 kts | 131° |
| 2026-04-29 20:22 | 52.81820 | -2.49480 | 35791 ft | 399 kts | 135° |
| 2026-04-29 20:22 | 52.79710 | -2.46494 | 35539 ft | 399 kts | 144° |
| 2026-04-29 20:22 | 52.77399 | -2.43929 | 35284 ft | 400 kts | 145° |
| 2026-04-29 20:22 | 52.75081 | -2.41376 | 35046 ft | 401 kts | 145° |
| 2026-04-29 20:23 | 52.72756 | -2.38812 | 34815 ft | 402 kts | 145° |
| 2026-04-29 20:23 | 52.70424 | -2.36242 | 34567 ft | 403 kts | 145° |
| 2026-04-29 20:23 | 52.68086 | -2.33668 | 34324 ft | 404 kts | 145° |
| 2026-04-29 20:23 | 52.65745 | -2.31096 | 33927 ft | 402 kts | 145° |
| 2026-04-29 20:24 | 52.63431 | -2.28558 | 33365 ft | 398 kts | 145° |
| 2026-04-29 20:24 | 52.61162 | -2.26074 | 32812 ft | 395 kts | 145° |
| 2026-04-29 20:24 | 52.58886 | -2.23581 | 32241 ft | 392 kts | 145° |
| 2026-04-29 20:24 | 52.56619 | -2.21099 | 31654 ft | 390 kts | 145° |
| 2026-04-29 20:25 | 52.54360 | -2.18634 | 31078 ft | 388 kts | 145° |
| 2026-04-29 20:25 | 52.52113 | -2.16187 | 30498 ft | 387 kts | 144° |
| 2026-04-29 20:25 | 52.49875 | -2.13748 | 29876 ft | 385 kts | 145° |
| 2026-04-29 20:25 | 52.47655 | -2.11331 | 29301 ft | 381 kts | 145° |
| 2026-04-29 20:26 | 52.45455 | -2.08937 | 28738 ft | 378 kts | 145° |
| 2026-04-29 20:26 | 52.43271 | -2.06567 | 28188 ft | 374 kts | 145° |
| 2026-04-29 20:26 | 52.41109 | -2.04224 | 27639 ft | 371 kts | 145° |
| 2026-04-29 20:26 | 52.38957 | -2.01896 | 27093 ft | 368 kts | 145° |
| 2026-04-29 20:27 | 52.36826 | -1.99591 | 26558 ft | 366 kts | 146° |
| 2026-04-29 20:27 | 52.35426 | -1.98079 | 26186 ft | 364 kts | 146° |
| 2026-04-29 20:27 | 52.32607 | -1.95045 | 25511 ft | 360 kts | 146° |
| 2026-04-29 20:27 | 52.30522 | -1.92803 | 25005 ft | 357 kts | 146° |
| 2026-04-29 20:28 | 52.28455 | -1.90579 | 24515 ft | 354 kts | 146° |
| 2026-04-29 20:28 | 52.26404 | -1.88375 | 24037 ft | 352 kts | 146° |
| 2026-04-29 20:28 | 52.24396 | -1.86216 | 23543 ft | 349 kts | 146° |
| 2026-04-29 20:28 | 52.22381 | -1.84052 | 23082 ft | 345 kts | 146° |
| 2026-04-29 20:29 | 52.20391 | -1.81914 | 22638 ft | 340 kts | 145° |
| 2026-04-29 20:29 | 52.18421 | -1.79797 | 22208 ft | 337 kts | 145° |
| 2026-04-29 20:29 | 52.16469 | -1.77712 | 21761 ft | 334 kts | 145° |
| 2026-04-29 20:29 | 52.14528 | -1.75646 | 21326 ft | 331 kts | 145° |
| 2026-04-29 20:30 | 52.12608 | -1.73602 | 20869 ft | 329 kts | 145° |
| 2026-04-29 20:30 | 52.10694 | -1.71567 | 20415 ft | 327 kts | 145° |
| 2026-04-29 20:30 | 52.08793 | -1.69546 | 20084 ft | 337 kts | 145° |
| 2026-04-29 20:30 | 52.06808 | -1.67432 | 19799 ft | 344 kts | 145° |
| 2026-04-29 20:31 | 52.04799 | -1.65295 | 19497 ft | 345 kts | 144° |
| 2026-04-29 20:31 | 52.02790 | -1.63164 | 19156 ft | 344 kts | 144° |
| 2026-04-29 20:31 | 52.00787 | -1.61043 | 18857 ft | 342 kts | 144° |
| 2026-04-29 20:31 | 51.98822 | -1.58958 | 18558 ft | 340 kts | 144° |
| 2026-04-29 20:32 | 51.96848 | -1.56864 | 18231 ft | 338 kts | 144° |
| 2026-04-29 20:32 | 51.94876 | -1.54778 | 17936 ft | 337 kts | 144° |
| 2026-04-29 20:32 | 51.92917 | -1.52708 | 17638 ft | 336 kts | 144° |
| 2026-04-29 20:32 | 51.90958 | -1.50643 | 17343 ft | 334 kts | 144° |
| 2026-04-29 20:33 | 51.89012 | -1.48594 | 17041 ft | 333 kts | 144° |
| 2026-04-29 20:33 | 51.87074 | -1.46557 | 16761 ft | 332 kts | 145° |
| 2026-04-29 20:33 | 51.85121 | -1.44506 | 16467 ft | 343 kts | 144° |
| 2026-04-29 20:33 | 51.83109 | -1.42390 | 16296 ft | 353 kts | 145° |
| 2026-04-29 20:34 | 51.81039 | -1.40216 | 16217 ft | 355 kts | 145° |
| 2026-04-29 20:34 | 51.78959 | -1.38042 | 16163 ft | 356 kts | 145° |
| 2026-04-29 20:34 | 51.76883 | -1.35875 | 16082 ft | 355 kts | 145° |
| 2026-04-29 20:34 | 51.74811 | -1.33712 | 16008 ft | 355 kts | 145° |
| 2026-04-29 20:35 | 51.72736 | -1.31548 | 15934 ft | 354 kts | 145° |
| 2026-04-29 20:35 | 51.70667 | -1.29389 | 15858 ft | 354 kts | 145° |
| 2026-04-29 20:35 | 51.68598 | -1.27231 | 15786 ft | 354 kts | 145° |
| 2026-04-29 20:35 | 51.66532 | -1.25079 | 15700 ft | 353 kts | 145° |
| 2026-04-29 20:36 | 51.64469 | -1.22931 | 15599 ft | 353 kts | 145° |
| 2026-04-29 20:36 | 51.62407 | -1.20788 | 15501 ft | 352 kts | 145° |
| 2026-04-29 20:36 | 51.60374 | -1.18674 | 15373 ft | 352 kts | 145° |
| 2026-04-29 20:36 | 51.58317 | -1.16539 | 15253 ft | 351 kts | 145° |
| 2026-04-29 20:37 | 51.56263 | -1.14412 | 15270 ft | 351 kts | 145° |
| 2026-04-29 20:37 | 51.54205 | -1.12282 | 15270 ft | 351 kts | 145° |
| 2026-04-29 20:37 | 51.52147 | -1.10154 | 15276 ft | 351 kts | 145° |
| 2026-04-29 20:37 | 51.50092 | -1.08034 | 15274 ft | 351 kts | 145° |
| 2026-04-29 20:38 | 51.48032 | -1.05914 | 15272 ft | 351 kts | 145° |
| 2026-04-29 20:38 | 51.45972 | -1.03799 | 15263 ft | 351 kts | 145° |
| 2026-04-29 20:38 | 51.43910 | -1.01688 | 15265 ft | 352 kts | 145° |
| 2026-04-29 20:38 | 51.41851 | -0.99577 | 15165 ft | 349 kts | 145° |
| 2026-04-29 20:39 | 51.39838 | -0.97516 | 14651 ft | 346 kts | 146° |
| 2026-04-29 20:39 | 51.37817 | -0.95448 | 14127 ft | 341 kts | 146° |
| 2026-04-29 20:39 | 51.35862 | -0.93452 | 13531 ft | 325 kts | 146° |
| 2026-04-29 20:39 | 51.33995 | -0.91548 | 12972 ft | 311 kts | 145° |
| 2026-04-29 20:40 | 51.32202 | -0.89718 | 12418 ft | 300 kts | 145° |
| 2026-04-29 20:40 | 51.30498 | -0.87981 | 12216 ft | 279 kts | 145° |
| 2026-04-29 20:40 | 51.28926 | -0.86377 | 12085 ft | 258 kts | 145° |
| 2026-04-29 20:40 | 51.27483 | -0.84905 | 11968 ft | 240 kts | 145° |
| 2026-04-29 20:41 | 51.26104 | -0.83515 | 11659 ft | 230 kts | 145° |
| 2026-04-29 20:41 | 51.24755 | -0.82166 | 11232 ft | 227 kts | 145° |
| 2026-04-29 20:41 | 51.23416 | -0.80833 | 10770 ft | 227 kts | 145° |
| 2026-04-29 20:41 | 51.22075 | -0.79502 | 10292 ft | 227 kts | 145° |
| 2026-04-29 20:42 | 51.20733 | -0.78175 | 9862 ft | 224 kts | 145° |
| 2026-04-29 20:42 | 51.19434 | -0.76898 | 9480 ft | 219 kts | 145° |
| 2026-04-29 20:42 | 51.18144 | -0.75636 | 9100 ft | 215 kts | 145° |
| 2026-04-29 20:42 | 51.16872 | -0.74399 | 8698 ft | 212 kts | 145° |
| 2026-04-29 20:43 | 51.15622 | -0.73190 | 8318 ft | 209 kts | 145° |
| 2026-04-29 20:43 | 51.14389 | -0.72001 | 7940 ft | 206 kts | 145° |
| 2026-04-29 20:43 | 51.13171 | -0.70827 | 7565 ft | 203 kts | 145° |
| 2026-04-29 20:43 | 51.11998 | -0.69703 | 7362 ft | 194 kts | 145° |
| 2026-04-29 20:44 | 51.10875 | -0.68643 | 7159 ft | 183 kts | 145° |
| 2026-04-29 20:44 | 51.09888 | -0.67431 | 6810 ft | 178 kts | 127° |
| 2026-04-29 20:44 | 51.09171 | -0.65839 | 6431 ft | 177 kts | 120° |
| 2026-04-29 20:44 | 51.08730 | -0.63999 | 5945 ft | 181 kts | 100° |
| 2026-04-29 20:45 | 51.08786 | -0.61989 | 5494 ft | 184 kts | 81° |
| 2026-04-29 20:45 | 51.09060 | -0.60080 | 5201 ft | 175 kts | 81° |
| 2026-04-29 20:45 | 51.09327 | -0.58208 | 4954 ft | 172 kts | 82° |
| 2026-04-29 20:45 | 51.09590 | -0.56350 | 4713 ft | 171 kts | 82° |
| 2026-04-29 20:46 | 51.09850 | -0.54515 | 4488 ft | 169 kts | 82° |
| 2026-04-29 20:46 | 51.10107 | -0.52701 | 4261 ft | 167 kts | 82° |
| 2026-04-29 20:46 | 51.10361 | -0.50900 | 4038 ft | 166 kts | 82° |
| 2026-04-29 20:46 | 51.10613 | -0.49114 | 3817 ft | 165 kts | 82° |
| 2026-04-29 20:47 | 51.10864 | -0.47332 | 3598 ft | 165 kts | 82° |
| 2026-04-29 20:47 | 51.11114 | -0.45560 | 3381 ft | 163 kts | 82° |
| 2026-04-29 20:47 | 51.11360 | -0.43812 | 3162 ft | 160 kts | 82° |
| 2026-04-29 20:47 | 51.11599 | -0.42116 | 2949 ft | 153 kts | 82° |
| 2026-04-29 20:48 | 51.11827 | -0.40495 | 2747 ft | 147 kts | 83° |
| 2026-04-29 20:48 | 51.12044 | -0.38946 | 2551 ft | 140 kts | 83° |
| 2026-04-29 20:48 | 51.12251 | -0.37465 | 2373 ft | 135 kts | 83° |
| 2026-04-29 20:48 | 51.12451 | -0.36033 | 2192 ft | 130 kts | 82° |
| 2026-04-29 20:49 | 51.12641 | -0.34674 | 2023 ft | 125 kts | 82° |
| 2026-04-29 20:49 | 51.12828 | -0.33336 | 1846 ft | 124 kts | 81° |
| 2026-04-29 20:49 | 51.13017 | -0.31976 | 1680 ft | 127 kts | 81° |
| 2026-04-29 20:49 | 51.13208 | -0.30606 | 1503 ft | 127 kts | 80° |
| 2026-04-29 20:50 | 51.13401 | -0.29218 | 1329 ft | 129 kts | 79° |
| 2026-04-29 20:50 | 51.13594 | -0.27832 | 1158 ft | 128 kts | 80° |
| 2026-04-29 20:50 | 51.13789 | -0.26428 | 968 ft | 130 kts | 77° |
| 2026-04-29 20:50 | 51.13982 | -0.25042 | 802 ft | 128 kts | 76° |
| 2026-04-29 20:51 | 51.14176 | -0.23649 | 629 ft | 128 kts | 76° |
| 2026-04-29 20:51 | 51.14366 | -0.22266 | 424 ft | 127 kts | 76° |
| 2026-04-29 20:51 | 51.14558 | -0.20891 | 278 ft | 126 kts | 76° |
| 2026-04-29 20:51 | 51.14746 | -0.19575 | 212 ft | 110 kts | 77° |
| 2026-04-29 20:52 | 51.14872 | -0.18616 | 214 ft | 74 kts | 78° |
| 2026-04-29 20:52 | 51.14962 | -0.18029 | 214 ft | 41 kts | 66° |
| 2026-04-29 20:52 | 51.15055 | -0.17798 | 205 ft | 10 kts | 54° |
| 2026-04-29 20:52 | 51.15098 | -0.17754 | 205 ft | 7 kts | 9° |
| 2026-04-29 20:53 | 51.15148 | -0.17758 | 205 ft | 6 kts | 7° |
| 2026-04-29 20:53 | 51.15178 | -0.17709 | 210 ft | 7 kts | 70° |
| 2026-04-29 20:53 | 51.15193 | -0.17607 | 204 ft | 13 kts | 79° |
| 2026-04-29 20:53 | 51.15215 | -0.17437 | 204 ft | 16 kts | 78° |
| 2026-04-29 20:54 | 51.15402 | -0.17386 | 207 ft | 17 kts | 346° |
| 2026-04-29 20:54 | 51.15504 | -0.17422 | 204 ft | 12 kts | 348° |
| 2026-04-29 20:54 | 51.15564 | -0.17434 | 212 ft | 9 kts | 14° |
| 2026-04-29 20:55 | 51.15598 | -0.17340 | 206 ft | 12 kts | 76° |
| 2026-04-29 20:55 | 51.15620 | -0.17197 | 213 ft | 14 kts | 76° |
| 2026-04-29 20:55 | 51.15642 | -0.17065 | 206 ft | 10 kts | 63° |
| 2026-04-29 20:55 | 51.15709 | -0.17044 | 211 ft | 12 kts | 348° |
| 2026-04-29 20:56 | 51.15789 | -0.17075 | 204 ft | 8 kts | 343° |
| 2026-04-29 20:56 | 51.15811 | -0.17151 | 208 ft | 8 kts | 260° |
| 2026-04-29 20:56 | 51.15822 | -0.17224 | 206 ft | 8 kts | 347° |
| 2026-04-29 20:56 | 51.15873 | -0.17246 | 214 ft | 2 kts | 346° |
| 2026-04-29 20:57 | 51.15879 | -0.17249 | 213 ft | 1 kts | 347° |
| 2026-04-29 20:57 | 51.15885 | -0.17251 | 204 ft | 0 kts | 347° |